Аэропорт: Гумрак. Волгоград

ICAO: URWW

METAR:
2021-01-24 18:00:00
URWW 241800Z 12004MPS CAVOK M00/M01 Q1024 R06/610055 TEMPO 0300 FZFG OVC002
METAR:
2021-01-24 16:59:00
TAF URWW 241659Z 2418/2503 14006G12MPS 3100 BR BKN005 TEMPO 2418/2421 11005G11MPS 0300 FZFG OVC002 BECMG 2421/2422 0200 FZFG OVC002 TEMPO 2422/2503 3100 BR BKN004